createdAt,value
2019-03-31T00:00:08.131Z,81.60
2019-03-31T00:02:39.349Z,78.87
2019-03-31T00:05:10.853Z,91.10
2019-03-31T00:07:42.030Z,100.50
2019-03-31T00:10:13.584Z,96.40
2019-03-31T00:12:44.810Z,108.60
2019-03-31T00:15:16.050Z,111.70
2019-03-31T00:17:47.230Z,124.60
2019-03-31T00:20:18.390Z,131.67
2019-03-31T00:22:49.568Z,108.60
2019-03-31T00:25:20.800Z,118.53
2019-03-31T00:27:51.905Z,131.40
2019-03-31T00:30:23.094Z,133.60
2019-03-31T00:32:54.344Z,151.83
2019-03-31T00:35:25.593Z,157.43
2019-03-31T00:37:56.765Z,153.27
2019-03-31T00:40:27.960Z,151.57
2019-03-31T00:42:59.294Z,150.60
2019-03-31T00:45:30.500Z,143.87
2019-03-31T00:48:01.942Z,145.97
2019-03-31T00:50:33.234Z,138.73
2019-03-31T00:53:04.403Z,137.60
2019-03-31T00:55:35.689Z,139.07
2019-03-31T00:58:06.982Z,153.33
2019-03-31T01:00:57.744Z,151.63
2019-03-31T01:03:29.700Z,151.30
2019-03-31T01:06:01.010Z,151.53
2019-03-31T01:08:34.878Z,146.63
2019-03-31T01:11:13.439Z,130.73
2019-03-31T01:13:45.743Z,131.33
2019-03-31T01:16:18.220Z,135.13
2019-03-31T01:18:49.576Z,126.23
2019-03-31T01:21:21.300Z,120.07
2019-03-31T01:23:52.572Z,139.17
2019-03-31T01:26:23.820Z,133.90
2019-03-31T01:28:56.726Z,122.60
2019-03-31T01:31:28.419Z,107.50
2019-03-31T01:34:00.048Z,128.23
2019-03-31T01:36:31.221Z,121.80
2019-03-31T01:39:02.407Z,135.27
2019-03-31T01:41:33.589Z,134.13
2019-03-31T01:44:04.844Z,132.23
2019-03-31T01:46:36.149Z,132.07
2019-03-31T01:49:07.659Z,111.53
2019-03-31T01:51:38.777Z,108.63
2019-03-31T01:54:09.998Z,98.30
2019-03-31T01:56:44.609Z,102.23
2019-03-31T01:59:14.394Z,100.13
2019-03-31T02:01:45.746Z,97.03
2019-03-31T02:04:16.941Z,81.30
2019-03-31T02:06:48.359Z,82.63
2019-03-31T02:09:19.546Z,72.97
2019-03-31T02:11:50.808Z,66.37
2019-03-31T02:14:22.048Z,69.53
2019-03-31T02:16:53.294Z,65.63
2019-03-31T02:19:24.408Z,66.97
2019-03-31T02:21:55.657Z,61.67
2019-03-31T02:24:26.864Z,64.87
2019-03-31T02:26:58.264Z,66.50
2019-03-31T02:29:29.483Z,67.63
2019-03-31T02:32:00.676Z,67.93
2019-03-31T02:34:31.822Z,61.47
2019-03-31T02:37:03.162Z,62.63
2019-03-31T02:39:34.434Z,62.70
2019-03-31T02:42:06.005Z,66.83
2019-03-31T02:44:37.090Z,60.27
2019-03-31T02:47:08.255Z,63.07
2019-03-31T02:49:39.488Z,62.27
2019-03-31T02:52:10.941Z,63.40
2019-03-31T02:54:42.170Z,65.10
2019-03-31T02:57:13.634Z,61.43
2019-03-31T02:59:45.452Z,61.20
2019-03-31T03:02:17.621Z,65.63
2019-03-31T03:04:50.868Z,63.47
2019-03-31T03:07:23.511Z,63.63
2019-03-31T03:09:55.598Z,72.33
2019-03-31T03:12:30.468Z,66.83
2019-03-31T03:15:04.955Z,69.77
2019-03-31T03:17:36.101Z,63.37
2019-03-31T03:20:07.931Z,68.67
2019-03-31T03:22:39.029Z,71.23
2019-03-31T03:25:10.505Z,71.00
2019-03-31T03:27:41.832Z,73.23
2019-03-31T03:30:13.685Z,70.17
2019-03-31T03:33:12.407Z,67.53
2019-03-31T03:35:17.959Z,70.80
2019-03-31T03:37:49.639Z,68.87
2019-03-31T03:40:20.826Z,71.33
2019-03-31T03:42:52.033Z,62.33
2019-03-31T03:45:23.280Z,69.23
2019-03-31T03:47:54.359Z,66.80
2019-03-31T03:50:25.866Z,74.77
2019-03-31T03:52:57.095Z,86.43
2019-03-31T03:55:28.220Z,75.90
2019-03-31T03:57:59.296Z,71.47
2019-03-31T04:00:30.595Z,83.00
2019-03-31T04:03:01.797Z,71.93
2019-03-31T04:05:32.989Z,72.63
2019-03-31T04:08:04.094Z,77.90
2019-03-31T04:11:22.885Z,80.83
2019-03-31T04:13:54.513Z,86.60
2019-03-31T04:16:25.880Z,77.50
2019-03-31T04:18:57.230Z,74.67
2019-03-31T04:21:28.644Z,79.20
2019-03-31T04:24:00.146Z,79.37
2019-03-31T04:26:31.441Z,78.57
2019-03-31T04:29:02.636Z,77.83
2019-03-31T04:31:33.907Z,77.03
2019-03-31T04:34:05.226Z,78.83
2019-03-31T04:36:36.477Z,83.03
2019-03-31T04:39:09.599Z,82.67
2019-03-31T04:41:40.869Z,79.77
2019-03-31T04:44:12.205Z,78.63
2019-03-31T04:46:43.427Z,70.17
2019-03-31T04:49:14.565Z,61.30
2019-03-31T04:51:45.779Z,57.40
2019-03-31T04:54:17.089Z,60.67
2019-03-31T04:56:48.209Z,55.60
2019-03-31T04:59:19.404Z,58.40
2019-03-31T05:01:50.609Z,57.20
2019-03-31T05:04:21.808Z,62.63
2019-03-31T05:06:53.845Z,52.53
2019-03-31T05:09:25.088Z,59.80
2019-03-31T05:11:56.285Z,59.13
2019-03-31T05:14:46.256Z,63.70
2019-03-31T05:17:17.430Z,59.47
2019-03-31T05:19:48.535Z,52.77
2019-03-31T05:22:19.799Z,58.23
2019-03-31T05:24:51.054Z,58.80
2019-03-31T05:27:22.358Z,54.17
2019-03-31T05:29:53.581Z,57.07
2019-03-31T05:32:24.799Z,49.17
2019-03-31T05:34:55.938Z,55.33
2019-03-31T05:37:27.220Z,59.30
2019-03-31T05:39:58.393Z,67.13
2019-03-31T05:42:29.678Z,62.07
2019-03-31T05:45:00.880Z,61.87
2019-03-31T05:47:32.088Z,65.00
2019-03-31T05:50:03.473Z,67.33
2019-03-31T05:52:34.699Z,66.23
2019-03-31T05:55:06.293Z,63.20
2019-03-31T05:57:37.598Z,65.90
2019-03-31T06:00:09.555Z,55.93
2019-03-31T06:02:40.694Z,52.43
2019-03-31T06:05:12.154Z,50.33
2019-03-31T06:07:44.299Z,53.63
2019-03-31T06:10:18.028Z,53.10
2019-03-31T06:12:49.571Z,50.57
2019-03-31T06:15:22.070Z,48.10
2019-03-31T06:17:54.480Z,49.10
2019-03-31T06:20:25.809Z,53.03
2019-03-31T06:22:57.328Z,52.43
2019-03-31T06:25:28.670Z,57.67
2019-03-31T06:27:59.988Z,58.97
2019-03-31T06:30:31.605Z,66.47
2019-03-31T06:33:03.224Z,61.97
2019-03-31T06:35:34.470Z,62.23
2019-03-31T06:38:05.795Z,63.53
2019-03-31T06:40:37.234Z,59.97
2019-03-31T06:43:08.651Z,63.57
2019-03-31T06:45:40.245Z,60.97
2019-03-31T06:48:11.824Z,64.33
2019-03-31T06:50:43.360Z,71.20
2019-03-31T06:53:14.957Z,68.17
2019-03-31T06:55:46.493Z,66.40
2019-03-31T06:58:17.918Z,68.83
2019-03-31T07:00:49.164Z,62.80
2019-03-31T07:03:20.357Z,66.10
2019-03-31T07:05:51.806Z,69.37
2019-03-31T07:08:23.245Z,65.60
2019-03-31T07:10:54.683Z,64.20
2019-03-31T07:13:25.928Z,67.37
2019-03-31T07:15:58.176Z,64.27
2019-03-31T07:18:29.876Z,64.73
2019-03-31T07:21:01.353Z,55.37
2019-03-31T07:23:35.041Z,56.63
2019-03-31T07:26:06.560Z,70.63
2019-03-31T07:28:38.015Z,60.10
2019-03-31T07:31:11.605Z,62.67
2019-03-31T07:33:42.777Z,56.90
2019-03-31T07:36:14.089Z,54.87
2019-03-31T07:38:45.420Z,56.53
2019-03-31T07:41:16.766Z,42.47
2019-03-31T07:43:48.279Z,43.33
2019-03-31T07:46:19.508Z,39.40
2019-03-31T07:48:50.746Z,38.23
2019-03-31T07:51:22.324Z,38.03
2019-03-31T07:53:53.649Z,39.30
2019-03-31T07:56:25.017Z,39.63
2019-03-31T07:58:56.212Z,43.80
2019-03-31T08:01:27.859Z,46.10
2019-03-31T08:04:00.919Z,45.60
2019-03-31T08:06:32.568Z,43.20
2019-03-31T08:09:07.368Z,42.43
2019-03-31T08:11:38.700Z,49.93
2019-03-31T08:14:09.995Z,49.60
2019-03-31T08:16:41.186Z,38.73
2019-03-31T08:19:12.315Z,42.20
2019-03-31T08:21:43.567Z,35.43
2019-03-31T08:24:14.777Z,36.97
2019-03-31T08:26:45.914Z,37.30
2019-03-31T08:29:17.005Z,35.50
2019-03-31T08:31:49.113Z,32.80
2019-03-31T08:34:20.485Z,33.63
2019-03-31T08:36:51.785Z,35.07
2019-03-31T08:39:29.230Z,33.17
2019-03-31T08:42:00.606Z,35.10
2019-03-31T08:44:31.888Z,35.27
2019-03-31T08:47:03.472Z,35.47
2019-03-31T08:49:34.673Z,30.43
2019-03-31T08:52:06.298Z,32.30
2019-03-31T08:54:38.026Z,32.93
2019-03-31T08:57:09.459Z,27.57
2019-03-31T08:59:40.974Z,31.70
2019-03-31T09:02:31.829Z,31.10
2019-03-31T09:05:03.145Z,30.90
2019-03-31T09:07:34.404Z,30.43
2019-03-31T09:10:07.329Z,28.33
2019-03-31T09:12:39.217Z,28.40
2019-03-31T09:15:13.180Z,29.07
2019-03-31T09:18:01.317Z,29.57
2019-03-31T09:20:32.548Z,27.13
2019-03-31T09:23:03.899Z,27.73
2019-03-31T09:25:35.216Z,28.43
2019-03-31T09:28:06.428Z,27.70
2019-03-31T09:30:37.798Z,29.00
2019-03-31T09:33:09.109Z,29.17
2019-03-31T09:35:40.228Z,30.13
2019-03-31T09:38:11.445Z,25.60
2019-03-31T09:40:42.715Z,30.40
2019-03-31T09:43:13.944Z,31.50
2019-03-31T09:45:45.219Z,29.10
2019-03-31T09:48:18.885Z,26.00
2019-03-31T09:50:50.206Z,27.90
2019-03-31T09:53:21.519Z,27.80
2019-03-31T09:55:52.890Z,29.00
2019-03-31T09:58:24.147Z,31.07
2019-03-31T10:00:55.621Z,30.27
2019-03-31T10:03:27.010Z,28.70
2019-03-31T10:06:10.057Z,27.33
2019-03-31T10:08:32.145Z,29.47
2019-03-31T10:11:03.489Z,31.90
2019-03-31T10:13:34.768Z,30.47
2019-03-31T10:16:05.991Z,30.93
2019-03-31T10:18:37.175Z,32.47
2019-03-31T10:21:08.482Z,30.27
2019-03-31T10:23:39.733Z,32.43
2019-03-31T10:26:11.088Z,35.87
2019-03-31T10:28:42.250Z,35.93
2019-03-31T10:31:13.379Z,33.50
2019-03-31T10:33:44.650Z,34.33
2019-03-31T10:36:16.284Z,31.70
2019-03-31T10:38:47.610Z,31.97
2019-03-31T10:41:18.908Z,33.10
2019-03-31T10:43:50.248Z,35.27
2019-03-31T10:46:21.591Z,28.63
2019-03-31T10:48:52.766Z,30.03
2019-03-31T10:51:24.065Z,30.97
2019-03-31T10:53:55.263Z,34.47
2019-03-31T10:56:26.603Z,30.20
2019-03-31T10:58:58.023Z,27.80
2019-03-31T11:01:29.325Z,27.67
2019-03-31T11:04:00.572Z,30.33
2019-03-31T11:06:32.119Z,32.90
2019-03-31T11:09:05.068Z,29.97
2019-03-31T11:11:36.589Z,33.10
2019-03-31T11:14:07.854Z,30.70
2019-03-31T11:16:39.009Z,30.43
2019-03-31T11:19:10.167Z,29.77
2019-03-31T11:21:47.474Z,31.83
2019-03-31T11:24:18.787Z,30.10
2019-03-31T11:26:50.089Z,26.17
2019-03-31T11:29:21.253Z,27.13
2019-03-31T11:31:52.394Z,33.00
2019-03-31T11:34:23.555Z,30.23
2019-03-31T11:36:54.983Z,27.17
2019-03-31T11:39:26.389Z,28.23
2019-03-31T11:41:57.708Z,29.40
2019-03-31T11:44:29.031Z,31.97
2019-03-31T11:47:00.410Z,26.30
2019-03-31T11:49:31.690Z,30.97
2019-03-31T11:52:02.894Z,27.30
2019-03-31T11:54:34.164Z,27.97
2019-03-31T11:57:05.390Z,25.83
2019-03-31T11:59:36.558Z,24.23
2019-03-31T12:02:08.066Z,26.13
2019-03-31T12:04:39.470Z,27.30
2019-03-31T12:07:10.698Z,25.93
2019-03-31T12:09:41.873Z,24.07
2019-03-31T12:12:13.170Z,23.37
2019-03-31T12:14:44.501Z,22.17
2019-03-31T12:17:16.332Z,25.70
2019-03-31T12:19:48.858Z,22.07
2019-03-31T12:22:20.369Z,22.53
2019-03-31T12:24:51.621Z,19.80
2019-03-31T12:27:23.019Z,21.87
2019-03-31T12:29:55.453Z,21.50
2019-03-31T12:32:26.773Z,19.70
2019-03-31T12:34:58.063Z,16.73
2019-03-31T12:37:41.695Z,20.13
2019-03-31T12:40:02.249Z,22.30
2019-03-31T12:42:33.568Z,27.03
2019-03-31T12:45:05.739Z,28.30
2019-03-31T12:47:37.007Z,27.23
2019-03-31T12:50:08.983Z,27.67
2019-03-31T12:52:46.512Z,30.10
2019-03-31T12:55:13.327Z,29.37
2019-03-31T12:57:44.447Z,27.63
2019-03-31T13:00:16.720Z,25.17
2019-03-31T13:02:48.046Z,23.27
2019-03-31T13:05:19.435Z,25.60
2019-03-31T13:07:56.683Z,25.90
2019-03-31T13:10:23.684Z,26.93
2019-03-31T13:12:55.020Z,25.03
2019-03-31T13:15:26.326Z,28.70
2019-03-31T13:17:57.885Z,27.70
2019-03-31T13:20:29.340Z,27.33
2019-03-31T13:23:00.754Z,27.03
2019-03-31T13:25:32.111Z,25.33
2019-03-31T13:28:05.659Z,26.77
2019-03-31T13:30:36.363Z,25.63
2019-03-31T13:33:16.666Z,25.70
2019-03-31T13:35:47.987Z,29.00
2019-03-31T13:38:19.221Z,27.27
2019-03-31T13:40:50.717Z,25.50
2019-03-31T13:43:22.029Z,24.43
2019-03-31T13:45:53.355Z,28.43
2019-03-31T13:48:24.874Z,27.97
2019-03-31T13:50:56.080Z,28.33
2019-03-31T13:53:27.464Z,27.40
2019-03-31T13:55:58.667Z,27.47
2019-03-31T13:58:30.529Z,25.77
2019-03-31T14:01:02.193Z,25.27
2019-03-31T14:03:33.640Z,24.90
2019-03-31T14:06:04.940Z,22.17
2019-03-31T14:08:36.104Z,25.33
2019-03-31T14:11:08.074Z,26.30
2019-03-31T14:13:39.227Z,26.63
2019-03-31T14:16:10.588Z,22.63
2019-03-31T14:18:41.808Z,20.93
2019-03-31T14:21:12.939Z,27.53
2019-03-31T14:23:44.280Z,23.10
2019-03-31T14:26:15.519Z,24.90
2019-03-31T14:28:46.598Z,21.47
2019-03-31T14:31:17.828Z,25.57
2019-03-31T14:33:49.321Z,27.83
2019-03-31T14:36:20.589Z,32.97
2019-03-31T14:38:52.064Z,24.63
2019-03-31T14:41:23.528Z,23.93
2019-03-31T14:43:54.870Z,24.27
2019-03-31T14:46:26.150Z,24.20
2019-03-31T14:48:57.386Z,29.33
2019-03-31T14:51:28.711Z,22.73
2019-03-31T14:54:00.175Z,19.53
2019-03-31T14:56:31.462Z,28.57
2019-03-31T14:59:02.905Z,18.77
2019-03-31T15:01:33.999Z,19.03
2019-03-31T15:04:05.319Z,18.37
2019-03-31T15:06:36.495Z,17.73
2019-03-31T15:09:09.844Z,18.57
2019-03-31T15:11:41.018Z,17.10
2019-03-31T15:14:12.270Z,21.13
2019-03-31T15:16:43.513Z,18.07
2019-03-31T15:19:14.717Z,15.77
2019-03-31T15:21:45.905Z,22.13
2019-03-31T15:24:17.208Z,19.87
2019-03-31T15:26:48.495Z,19.60
2019-03-31T15:29:19.685Z,17.60
2019-03-31T15:31:51.124Z,19.30
2019-03-31T15:34:22.449Z,19.80
2019-03-31T15:36:53.664Z,15.90
2019-03-31T15:39:24.984Z,17.57
2019-03-31T15:41:56.341Z,19.17
2019-03-31T15:44:27.589Z,17.77
2019-03-31T15:46:58.869Z,18.57
2019-03-31T15:49:30.237Z,18.97
2019-03-31T15:52:01.484Z,18.07
2019-03-31T15:54:32.802Z,21.80
2019-03-31T15:57:04.185Z,17.63
2019-03-31T15:59:39.008Z,20.47
2019-03-31T16:02:12.375Z,23.83
2019-03-31T16:04:44.544Z,22.47
2019-03-31T16:07:21.689Z,21.57
2019-03-31T16:09:52.333Z,20.00
2019-03-31T16:12:23.055Z,17.00
2019-03-31T16:14:54.710Z,23.03
2019-03-31T16:17:26.265Z,17.77
2019-03-31T16:20:04.615Z,19.37
2019-03-31T16:22:38.659Z,18.60
2019-03-31T16:25:21.078Z,19.90
2019-03-31T16:27:52.390Z,17.20
2019-03-31T16:30:23.315Z,16.63
2019-03-31T16:32:57.694Z,17.77
2019-03-31T16:35:30.670Z,16.13
2019-03-31T16:38:01.231Z,21.63
2019-03-31T16:40:31.864Z,21.07
2019-03-31T16:43:03.470Z,19.30
2019-03-31T16:45:36.460Z,20.20
2019-03-31T16:48:07.044Z,19.73
2019-03-31T16:50:40.635Z,19.00
2019-03-31T16:53:14.199Z,26.17
2019-03-31T16:55:46.002Z,22.67
2019-03-31T16:58:18.674Z,24.43
2019-03-31T17:00:49.268Z,20.50
2019-03-31T17:03:21.120Z,23.37
2019-03-31T17:05:54.122Z,22.93
2019-03-31T17:08:24.734Z,21.43
2019-03-31T17:10:55.194Z,21.67
2019-03-31T17:13:25.801Z,23.27
2019-03-31T17:15:56.278Z,24.20
2019-03-31T17:18:27.084Z,23.00
2019-03-31T17:21:08.340Z,20.50
2019-03-31T17:23:40.988Z,19.67
2019-03-31T17:26:13.880Z,22.43
2019-03-31T17:28:44.469Z,17.17
2019-03-31T17:31:15.253Z,17.93
2019-03-31T17:33:46.003Z,18.67
2019-03-31T17:36:18.212Z,19.50
2019-03-31T17:38:49.905Z,21.33
2019-03-31T17:41:20.621Z,17.90
2019-03-31T17:43:51.249Z,19.33
2019-03-31T17:46:23.373Z,24.10
2019-03-31T17:48:56.268Z,21.97
2019-03-31T17:51:29.985Z,23.40
2019-03-31T17:54:06.268Z,21.97
2019-03-31T17:56:36.484Z,21.00
2019-03-31T17:59:08.918Z,23.23
2019-03-31T18:01:40.954Z,21.20
2019-03-31T18:04:14.743Z,19.33
2019-03-31T18:06:47.680Z,18.57
2019-03-31T18:09:24.335Z,19.57
2019-03-31T18:11:57.575Z,18.93
2019-03-31T18:14:29.184Z,19.87
2019-03-31T18:17:03.319Z,23.50
2019-03-31T18:19:33.904Z,20.03
2019-03-31T18:22:16.384Z,20.07
2019-03-31T18:24:40.639Z,22.20
2019-03-31T18:27:16.414Z,20.63
2019-03-31T18:29:52.249Z,22.67
2019-03-31T18:32:29.479Z,24.47
2019-03-31T18:35:09.994Z,27.93
2019-03-31T18:37:40.605Z,35.10
2019-03-31T18:40:12.328Z,34.53
2019-03-31T18:42:48.105Z,36.67
2019-03-31T18:45:20.015Z,32.10
2019-03-31T18:47:50.548Z,31.67
2019-03-31T18:50:21.134Z,32.87
2019-03-31T18:52:52.785Z,25.93
2019-03-31T18:55:35.538Z,30.93
2019-03-31T18:58:21.811Z,27.97
2019-03-31T19:01:10.029Z,29.53
2019-03-31T19:04:12.372Z,23.07
2019-03-31T19:06:54.729Z,23.07
2019-03-31T19:09:35.493Z,23.57
2019-03-31T19:12:27.322Z,23.67
2019-03-31T19:15:17.641Z,25.63
2019-03-31T19:18:07.444Z,23.90
2019-03-31T19:21:11.511Z,20.80
2019-03-31T19:23:54.192Z,25.10
2019-03-31T19:26:48.742Z,25.97
2019-03-31T19:29:41.118Z,25.33
2019-03-31T19:32:21.189Z,23.17
2019-03-31T19:35:22.736Z,25.20
2019-03-31T19:38:14.116Z,27.17
2019-03-31T19:41:05.821Z,27.50
2019-03-31T19:43:55.104Z,31.40
2019-03-31T19:46:35.772Z,28.63
2019-03-31T19:49:26.335Z,26.17
2019-03-31T19:52:16.084Z,26.60
2019-03-31T19:55:09.655Z,24.83
2019-03-31T19:57:58.900Z,22.33
2019-03-31T20:00:53.031Z,18.73
2019-03-31T20:03:44.645Z,18.00
2019-03-31T20:06:27.750Z,23.73
2019-03-31T20:09:13.914Z,19.47
2019-03-31T20:12:07.668Z,18.03
2019-03-31T20:15:09.915Z,19.97
2019-03-31T20:18:00.320Z,18.97
2019-03-31T20:20:49.524Z,20.47
2019-03-31T20:23:34.680Z,20.30
2019-03-31T20:26:24.101Z,19.10
2019-03-31T20:29:10.584Z,21.07
2019-03-31T20:31:59.987Z,18.67
2019-03-31T20:34:44.764Z,18.83
2019-03-31T20:37:35.965Z,19.73
2019-03-31T20:40:22.200Z,20.77
2019-03-31T20:43:11.479Z,21.97
2019-03-31T20:45:43.839Z,21.77
2019-03-31T20:48:16.488Z,19.47
2019-03-31T20:50:46.879Z,23.83
2019-03-31T20:53:19.388Z,23.17
2019-03-31T20:55:49.845Z,22.87
2019-03-31T20:58:20.224Z,23.03
2019-03-31T21:00:50.595Z,22.87
2019-03-31T21:03:21.148Z,21.03
2019-03-31T21:05:51.584Z,21.67
2019-03-31T21:08:22.164Z,20.53
2019-03-31T21:10:52.455Z,27.60
2019-03-31T21:13:22.855Z,20.83
2019-03-31T21:15:53.207Z,19.17
2019-03-31T21:18:23.654Z,21.33
2019-03-31T21:20:54.146Z,21.53
2019-03-31T21:23:24.528Z,20.97
2019-03-31T21:25:54.898Z,18.17
2019-03-31T21:28:25.307Z,16.40
2019-03-31T21:30:55.755Z,18.10
2019-03-31T21:33:26.093Z,16.77
2019-03-31T21:35:56.374Z,18.53
2019-03-31T21:38:26.839Z,19.37
2019-03-31T21:40:57.167Z,16.50
2019-03-31T21:43:27.514Z,17.47
2019-03-31T21:45:57.884Z,22.43
2019-03-31T21:48:28.308Z,17.00
2019-03-31T21:50:58.698Z,14.97
2019-03-31T21:53:28.984Z,16.10
2019-03-31T21:55:59.390Z,15.80
2019-03-31T21:58:29.800Z,16.83
2019-03-31T22:01:00.521Z,16.33
2019-03-31T22:03:30.870Z,14.23
2019-03-31T22:06:01.315Z,15.20
2019-03-31T22:08:31.740Z,17.33
2019-03-31T22:11:02.134Z,14.73
2019-03-31T22:13:32.541Z,16.47
2019-03-31T22:16:03.074Z,13.30
2019-03-31T22:18:33.820Z,14.03
2019-03-31T22:21:04.251Z,10.93
2019-03-31T22:23:37.766Z,11.60
2019-03-31T22:26:08.300Z,14.33
2019-03-31T22:28:38.778Z,12.80
2019-03-31T22:31:09.340Z,13.20
2019-03-31T22:33:39.726Z,11.73
2019-03-31T22:36:29.109Z,11.17
2019-03-31T22:38:59.468Z,10.30
2019-03-31T22:41:29.855Z,14.20
2019-03-31T22:44:00.311Z,11.23
2019-03-31T22:46:30.700Z,12.87
2019-03-31T22:49:01.080Z,12.63
2019-03-31T22:51:31.456Z,13.57
2019-03-31T22:54:01.820Z,20.47
2019-03-31T22:56:32.166Z,15.10
2019-03-31T22:59:02.513Z,11.93
2019-03-31T23:01:33.238Z,14.53
2019-03-31T23:04:03.726Z,15.40
2019-03-31T23:06:34.091Z,12.77
2019-03-31T23:09:06.126Z,12.23
2019-03-31T23:11:36.670Z,17.37
2019-03-31T23:14:07.104Z,10.80
2019-03-31T23:16:37.639Z,14.27
2019-03-31T23:19:08.590Z,10.97
2019-03-31T23:21:38.972Z,17.27
2019-03-31T23:24:09.430Z,14.33
2019-03-31T23:26:39.944Z,12.20
2019-03-31T23:29:10.324Z,11.70
2019-03-31T23:31:40.673Z,10.60
2019-03-31T23:34:11.114Z,16.17
2019-03-31T23:36:41.521Z,16.53
2019-03-31T23:39:11.929Z,16.03
2019-03-31T23:41:42.269Z,18.70
2019-03-31T23:44:12.900Z,12.37
2019-03-31T23:46:43.440Z,14.63
2019-03-31T23:49:13.789Z,10.87
2019-03-31T23:51:44.170Z,10.17
2019-03-31T23:54:14.507Z,16.50
2019-03-31T23:56:44.954Z,12.60
2019-03-31T23:59:15.410Z,15.97
